sensor_id;sensor_type;location;lat;lon;timestamp;P1;durP1;ratioP1;P2;durP2;ratioP2
11620;SDS011;5866;49.094;11.900;2023-11-21T00:00:08;7.93;;;7.43;;
11620;SDS011;5866;49.094;11.900;2023-11-21T00:02:38;7.57;;;7.07;;
11620;SDS011;5866;49.094;11.900;2023-11-21T00:05:07;8.40;;;7.87;;
11620;SDS011;5866;49.094;11.900;2023-11-21T00:07:36;9.13;;;8.43;;
11620;SDS011;5866;49.094;11.900;2023-11-21T00:10:04;8.63;;;7.93;;
11620;SDS011;5866;49.094;11.900;2023-11-21T00:12:33;9.47;;;8.80;;
11620;SDS011;5866;49.094;11.900;2023-11-21T00:15:01;9.43;;;8.73;;
11620;SDS011;5866;49.094;11.900;2023-11-21T00:17:31;10.00;;;9.30;;
11620;SDS011;5866;49.094;11.900;2023-11-21T00:19:59;8.77;;;8.17;;
11620;SDS011;5866;49.094;11.900;2023-11-21T00:22:27;10.53;;;9.63;;
11620;SDS011;5866;49.094;11.900;2023-11-21T00:24:54;8.90;;;8.13;;
11620;SDS011;5866;49.094;11.900;2023-11-21T00:27:22;11.03;;;10.13;;
11620;SDS011;5866;49.094;11.900;2023-11-21T00:29:51;14.03;;;13.07;;
11620;SDS011;5866;49.094;11.900;2023-11-21T00:32:19;14.10;;;13.13;;
11620;SDS011;5866;49.094;11.900;2023-11-21T00:34:47;13.13;;;12.33;;
11620;SDS011;5866;49.094;11.900;2023-11-21T00:37:24;14.63;;;13.81;;
11620;SDS011;5866;49.094;11.900;2023-11-21T00:39:52;17.37;;;16.00;;
11620;SDS011;5866;49.094;11.900;2023-11-21T00:42:19;19.93;;;18.57;;
11620;SDS011;5866;49.094;11.900;2023-11-21T00:44:47;23.00;;;21.50;;
11620;SDS011;5866;49.094;11.900;2023-11-21T00:47:16;24.67;;;22.87;;
11620;SDS011;5866;49.094;11.900;2023-11-21T00:49:44;26.53;;;24.93;;
11620;SDS011;5866;49.094;11.900;2023-11-21T00:52:12;26.17;;;24.47;;
11620;SDS011;5866;49.094;11.900;2023-11-21T00:54:39;33.03;;;31.10;;
11620;SDS011;5866;49.094;11.900;2023-11-21T00:57:07;40.30;;;37.93;;
11620;SDS011;5866;49.094;11.900;2023-11-21T00:59:35;42.40;;;40.10;;
11620;SDS011;5866;49.094;11.900;2023-11-21T01:02:03;37.80;;;35.80;;
11620;SDS011;5866;49.094;11.900;2023-11-21T01:04:32;49.97;;;47.07;;
11620;SDS011;5866;49.094;11.900;2023-11-21T01:07:00;59.47;;;56.07;;
11620;SDS011;5866;49.094;11.900;2023-11-21T01:09:28;71.83;;;67.93;;
11620;SDS011;5866;49.094;11.900;2023-11-21T01:11:56;59.33;;;56.07;;
11620;SDS011;5866;49.094;11.900;2023-11-21T01:14:25;69.73;;;65.93;;
11620;SDS011;5866;49.094;11.900;2023-11-21T01:16:53;78.93;;;74.83;;
11620;SDS011;5866;49.094;11.900;2023-11-21T01:19:21;75.00;;;70.83;;
11620;SDS011;5866;49.094;11.900;2023-11-21T01:21:51;78.13;;;73.93;;
11620;SDS011;5866;49.094;11.900;2023-11-21T01:24:19;79.00;;;74.70;;
11620;SDS011;5866;49.094;11.900;2023-11-21T01:26:46;79.77;;;75.53;;
11620;SDS011;5866;49.094;11.900;2023-11-21T01:29:14;80.23;;;75.67;;
11620;SDS011;5866;49.094;11.900;2023-11-21T01:31:42;86.80;;;82.03;;
11620;SDS011;5866;49.094;11.900;2023-11-21T01:34:10;74.37;;;70.17;;
11620;SDS011;5866;49.094;11.900;2023-11-21T01:36:37;77.03;;;72.77;;
11620;SDS011;5866;49.094;11.900;2023-11-21T01:39:06;71.30;;;67.30;;
11620;SDS011;5866;49.094;11.900;2023-11-21T01:41:34;88.63;;;83.43;;
11620;SDS011;5866;49.094;11.900;2023-11-21T01:44:03;84.87;;;80.17;;
11620;SDS011;5866;49.094;11.900;2023-11-21T01:46:33;84.70;;;79.83;;
11620;SDS011;5866;49.094;11.900;2023-11-21T01:49:02;82.87;;;78.27;;
11620;SDS011;5866;49.094;11.900;2023-11-21T01:51:30;83.30;;;78.67;;
11620;SDS011;5866;49.094;11.900;2023-11-21T01:53:57;88.83;;;83.73;;
11620;SDS011;5866;49.094;11.900;2023-11-21T01:56:27;85.90;;;80.90;;
11620;SDS011;5866;49.094;11.900;2023-11-21T01:58:54;76.90;;;72.47;;
11620;SDS011;5866;49.094;11.900;2023-11-21T02:01:23;82.40;;;78.00;;
11620;SDS011;5866;49.094;11.900;2023-11-21T02:03:52;90.93;;;85.93;;
11620;SDS011;5866;49.094;11.900;2023-11-21T02:06:19;76.43;;;72.30;;
11620;SDS011;5866;49.094;11.900;2023-11-21T02:08:48;86.77;;;82.17;;
11620;SDS011;5866;49.094;11.900;2023-11-21T02:11:16;71.53;;;67.60;;
11620;SDS011;5866;49.094;11.900;2023-11-21T02:13:46;79.03;;;74.63;;
11620;SDS011;5866;49.094;11.900;2023-11-21T02:16:16;55.77;;;52.60;;
11620;SDS011;5866;49.094;11.900;2023-11-21T02:18:44;72.17;;;68.17;;
11620;SDS011;5866;49.094;11.900;2023-11-21T02:21:13;68.90;;;65.00;;
11620;SDS011;5866;49.094;11.900;2023-11-21T02:23:42;68.03;;;64.30;;
11620;SDS011;5866;49.094;11.900;2023-11-21T02:26:10;65.57;;;61.73;;
11620;SDS011;5866;49.094;11.900;2023-11-21T02:28:38;78.47;;;74.30;;
11620;SDS011;5866;49.094;11.900;2023-11-21T02:31:06;71.07;;;67.30;;
11620;SDS011;5866;49.094;11.900;2023-11-21T02:33:34;75.30;;;70.90;;
11620;SDS011;5866;49.094;11.900;2023-11-21T02:36:01;77.13;;;72.93;;
11620;SDS011;5866;49.094;11.900;2023-11-21T02:38:29;70.93;;;66.93;;
11620;SDS011;5866;49.094;11.900;2023-11-21T02:40:59;66.50;;;62.77;;
11620;SDS011;5866;49.094;11.900;2023-11-21T02:43:26;61.23;;;57.93;;
11620;SDS011;5866;49.094;11.900;2023-11-21T02:45:54;61.30;;;58.03;;
11620;SDS011;5866;49.094;11.900;2023-11-21T02:48:22;68.87;;;65.17;;
11620;SDS011;5866;49.094;11.900;2023-11-21T02:50:52;51.93;;;48.73;;
11620;SDS011;5866;49.094;11.900;2023-11-21T02:53:19;53.30;;;50.23;;
11620;SDS011;5866;49.094;11.900;2023-11-21T02:55:47;57.83;;;54.47;;
11620;SDS011;5866;49.094;11.900;2023-11-21T02:58:16;63.50;;;59.97;;
11620;SDS011;5866;49.094;11.900;2023-11-21T03:00:44;44.13;;;41.70;;
11620;SDS011;5866;49.094;11.900;2023-11-21T03:03:11;48.57;;;45.77;;
11620;SDS011;5866;49.094;11.900;2023-11-21T03:05:41;42.53;;;40.07;;
11620;SDS011;5866;49.094;11.900;2023-11-21T03:08:09;43.03;;;40.27;;
11620;SDS011;5866;49.094;11.900;2023-11-21T03:10:36;36.83;;;34.67;;
11620;SDS011;5866;49.094;11.900;2023-11-21T03:13:04;38.23;;;35.93;;
11620;SDS011;5866;49.094;11.900;2023-11-21T03:15:33;46.47;;;43.67;;
11620;SDS011;5866;49.094;11.900;2023-11-21T03:18:01;43.87;;;41.30;;
11620;SDS011;5866;49.094;11.900;2023-11-21T03:20:29;45.20;;;42.57;;
11620;SDS011;5866;49.094;11.900;2023-11-21T03:22:57;51.47;;;48.60;;
11620;SDS011;5866;49.094;11.900;2023-11-21T03:25:26;51.10;;;48.30;;
11620;SDS011;5866;49.094;11.900;2023-11-21T03:27:53;55.93;;;52.63;;
11620;SDS011;5866;49.094;11.900;2023-11-21T03:30:21;46.03;;;43.47;;
11620;SDS011;5866;49.094;11.900;2023-11-21T03:32:50;55.23;;;51.90;;
11620;SDS011;5866;49.094;11.900;2023-11-21T03:35:17;57.93;;;54.57;;
11620;SDS011;5866;49.094;11.900;2023-11-21T03:37:47;54.67;;;51.77;;
11620;SDS011;5866;49.094;11.900;2023-11-21T03:40:15;40.27;;;37.63;;
11620;SDS011;5866;49.094;11.900;2023-11-21T03:42:42;24.33;;;22.73;;
11620;SDS011;5866;49.094;11.900;2023-11-21T03:45:10;21.23;;;19.70;;
11620;SDS011;5866;49.094;11.900;2023-11-21T03:47:38;21.50;;;20.03;;
11620;SDS011;5866;49.094;11.900;2023-11-21T03:50:08;17.27;;;16.23;;
11620;SDS011;5866;49.094;11.900;2023-11-21T03:52:36;22.83;;;21.17;;
11620;SDS011;5866;49.094;11.900;2023-11-21T03:55:04;23.07;;;21.67;;
11620;SDS011;5866;49.094;11.900;2023-11-21T03:57:32;22.17;;;20.40;;
11620;SDS011;5866;49.094;11.900;2023-11-21T04:00:00;23.37;;;21.87;;
11620;SDS011;5866;49.094;11.900;2023-11-21T04:02:30;26.97;;;25.37;;
11620;SDS011;5866;49.094;11.900;2023-11-21T04:04:59;31.97;;;29.87;;
11620;SDS011;5866;49.094;11.900;2023-11-21T04:07:28;31.70;;;29.80;;
11620;SDS011;5866;49.094;11.900;2023-11-21T04:09:56;30.73;;;28.80;;
11620;SDS011;5866;49.094;11.900;2023-11-21T04:12:23;34.33;;;32.43;;
11620;SDS011;5866;49.094;11.900;2023-11-21T04:14:51;34.70;;;32.60;;
11620;SDS011;5866;49.094;11.900;2023-11-21T04:17:21;38.37;;;36.07;;
11620;SDS011;5866;49.094;11.900;2023-11-21T04:19:49;46.97;;;44.13;;
11620;SDS011;5866;49.094;11.900;2023-11-21T04:22:16;42.33;;;39.63;;
11620;SDS011;5866;49.094;11.900;2023-11-21T04:24:45;50.60;;;47.27;;
11620;SDS011;5866;49.094;11.900;2023-11-21T04:27:13;48.80;;;45.67;;
11620;SDS011;5866;49.094;11.900;2023-11-21T04:29:41;53.40;;;50.40;;
11620;SDS011;5866;49.094;11.900;2023-11-21T04:32:08;58.87;;;55.30;;
11620;SDS011;5866;49.094;11.900;2023-11-21T04:34:36;53.83;;;50.70;;
11620;SDS011;5866;49.094;11.900;2023-11-21T04:37:03;47.20;;;44.43;;
11620;SDS011;5866;49.094;11.900;2023-11-21T04:39:32;55.80;;;52.70;;
11620;SDS011;5866;49.094;11.900;2023-11-21T04:42:01;52.80;;;49.63;;
11620;SDS011;5866;49.094;11.900;2023-11-21T04:44:29;53.47;;;50.40;;
11620;SDS011;5866;49.094;11.900;2023-11-21T04:46:57;49.37;;;46.37;;
11620;SDS011;5866;49.094;11.900;2023-11-21T04:49:25;51.97;;;48.77;;
11620;SDS011;5866;49.094;11.900;2023-11-21T04:51:52;46.17;;;43.37;;
11620;SDS011;5866;49.094;11.900;2023-11-21T04:54:20;52.50;;;49.30;;
11620;SDS011;5866;49.094;11.900;2023-11-21T04:56:51;54.87;;;51.87;;
11620;SDS011;5866;49.094;11.900;2023-11-21T04:59:20;52.77;;;49.87;;
11620;SDS011;5866;49.094;11.900;2023-11-21T05:01:50;59.43;;;56.00;;
11620;SDS011;5866;49.094;11.900;2023-11-21T05:04:19;42.70;;;40.17;;
11620;SDS011;5866;49.094;11.900;2023-11-21T05:06:46;56.87;;;53.50;;
11620;SDS011;5866;49.094;11.900;2023-11-21T05:09:14;65.00;;;61.37;;
11620;SDS011;5866;49.094;11.900;2023-11-21T05:11:42;67.37;;;63.73;;
11620;SDS011;5866;49.094;11.900;2023-11-21T05:14:09;73.07;;;68.87;;
11620;SDS011;5866;49.094;11.900;2023-11-21T05:16:39;82.23;;;77.67;;
11620;SDS011;5866;49.094;11.900;2023-11-21T05:19:06;57.50;;;54.23;;
11620;SDS011;5866;49.094;11.900;2023-11-21T05:21:35;50.50;;;47.67;;
11620;SDS011;5866;49.094;11.900;2023-11-21T05:24:03;46.47;;;43.57;;
11620;SDS011;5866;49.094;11.900;2023-11-21T05:26:31;48.27;;;45.60;;
11620;SDS011;5866;49.094;11.900;2023-11-21T05:28:59;47.63;;;44.83;;
11620;SDS011;5866;49.094;11.900;2023-11-21T05:31:27;53.57;;;50.57;;
11620;SDS011;5866;49.094;11.900;2023-11-21T05:33:56;49.20;;;46.53;;
11620;SDS011;5866;49.094;11.900;2023-11-21T05:36:23;43.23;;;40.73;;
11620;SDS011;5866;49.094;11.900;2023-11-21T05:38:51;39.13;;;36.50;;
11620;SDS011;5866;49.094;11.900;2023-11-21T05:41:18;39.47;;;37.03;;
11620;SDS011;5866;49.094;11.900;2023-11-21T05:43:46;45.03;;;42.33;;
11620;SDS011;5866;49.094;11.900;2023-11-21T05:46:14;44.13;;;41.63;;
11620;SDS011;5866;49.094;11.900;2023-11-21T05:48:42;47.30;;;44.53;;
11620;SDS011;5866;49.094;11.900;2023-11-21T05:51:11;51.73;;;48.67;;
11620;SDS011;5866;49.094;11.900;2023-11-21T05:53:40;54.03;;;51.03;;
11620;SDS011;5866;49.094;11.900;2023-11-21T05:56:08;54.20;;;51.00;;
11620;SDS011;5866;49.094;11.900;2023-11-21T05:58:35;54.53;;;51.00;;
11620;SDS011;5866;49.094;11.900;2023-11-21T06:01:05;52.13;;;49.00;;
11620;SDS011;5866;49.094;11.900;2023-11-21T06:03:33;51.57;;;48.53;;
11620;SDS011;5866;49.094;11.900;2023-11-21T06:06:01;51.03;;;48.13;;
11620;SDS011;5866;49.094;11.900;2023-11-21T06:08:31;52.90;;;49.63;;
11620;SDS011;5866;49.094;11.900;2023-11-21T06:10:59;49.70;;;46.37;;
11620;SDS011;5866;49.094;11.900;2023-11-21T06:13:27;44.57;;;41.87;;
11620;SDS011;5866;49.094;11.900;2023-11-21T06:15:54;47.97;;;45.10;;
11620;SDS011;5866;49.094;11.900;2023-11-21T06:18:22;50.77;;;47.43;;
11620;SDS011;5866;49.094;11.900;2023-11-21T06:20:50;55.13;;;51.67;;
11620;SDS011;5866;49.094;11.900;2023-11-21T06:23:19;55.00;;;51.63;;
11620;SDS011;5866;49.094;11.900;2023-11-21T06:25:48;54.03;;;50.80;;
11620;SDS011;5866;49.094;11.900;2023-11-21T06:28:16;51.60;;;48.57;;
11620;SDS011;5866;49.094;11.900;2023-11-21T06:30:44;45.33;;;42.53;;
11620;SDS011;5866;49.094;11.900;2023-11-21T06:33:12;51.57;;;48.27;;
11620;SDS011;5866;49.094;11.900;2023-11-21T06:35:39;51.47;;;48.27;;
11620;SDS011;5866;49.094;11.900;2023-11-21T06:38:07;51.43;;;48.27;;
11620;SDS011;5866;49.094;11.900;2023-11-21T06:40:35;55.67;;;51.97;;
11620;SDS011;5866;49.094;11.900;2023-11-21T06:43:04;51.07;;;47.83;;
11620;SDS011;5866;49.094;11.900;2023-11-21T06:45:33;54.03;;;50.93;;
11620;SDS011;5866;49.094;11.900;2023-11-21T06:48:01;56.63;;;53.10;;
11620;SDS011;5866;49.094;11.900;2023-11-21T06:50:29;54.90;;;51.60;;
11620;SDS011;5866;49.094;11.900;2023-11-21T06:52:57;58.93;;;54.87;;
11620;SDS011;5866;49.094;11.900;2023-11-21T06:55:24;60.27;;;56.57;;
11620;SDS011;5866;49.094;11.900;2023-11-21T06:57:52;55.63;;;52.13;;
11620;SDS011;5866;49.094;11.900;2023-11-21T07:00:21;54.90;;;51.30;;
11620;SDS011;5866;49.094;11.900;2023-11-21T07:02:50;60.53;;;56.83;;
11620;SDS011;5866;49.094;11.900;2023-11-21T07:05:17;61.60;;;57.80;;
11620;SDS011;5866;49.094;11.900;2023-11-21T07:07:48;65.83;;;61.83;;
11620;SDS011;5866;49.094;11.900;2023-11-21T07:10:16;63.97;;;60.07;;
11620;SDS011;5866;49.094;11.900;2023-11-21T07:12:44;57.60;;;53.97;;
11620;SDS011;5866;49.094;11.900;2023-11-21T07:15:12;62.43;;;58.60;;
11620;SDS011;5866;49.094;11.900;2023-11-21T07:17:41;62.70;;;58.90;;
11620;SDS011;5866;49.094;11.900;2023-11-21T07:20:10;64.63;;;60.53;;
11620;SDS011;5866;49.094;11.900;2023-11-21T07:22:38;59.47;;;55.80;;
11620;SDS011;5866;49.094;11.900;2023-11-21T07:25:06;57.73;;;54.00;;
11620;SDS011;5866;49.094;11.900;2023-11-21T07:27:35;55.83;;;51.80;;
11620;SDS011;5866;49.094;11.900;2023-11-21T07:30:03;48.73;;;45.30;;
11620;SDS011;5866;49.094;11.900;2023-11-21T07:32:34;45.70;;;42.67;;
11620;SDS011;5866;49.094;11.900;2023-11-21T07:35:03;45.97;;;42.87;;
11620;SDS011;5866;49.094;11.900;2023-11-21T07:37:31;45.60;;;42.63;;
11620;SDS011;5866;49.094;11.900;2023-11-21T07:39:59;45.20;;;42.23;;
11620;SDS011;5866;49.094;11.900;2023-11-21T07:42:26;45.07;;;42.17;;
11620;SDS011;5866;49.094;11.900;2023-11-21T07:44:54;43.27;;;40.60;;
11620;SDS011;5866;49.094;11.900;2023-11-21T07:47:21;37.88;;;35.30;;
11620;SDS011;5866;49.094;11.900;2023-11-21T07:49:54;43.80;;;40.83;;
11620;SDS011;5866;49.094;11.900;2023-11-21T07:52:24;41.70;;;38.87;;
11620;SDS011;5866;49.094;11.900;2023-11-21T07:54:52;43.00;;;40.27;;
11620;SDS011;5866;49.094;11.900;2023-11-21T07:57:19;40.42;;;37.85;;
11620;SDS011;5866;49.094;11.900;2023-11-21T07:59:47;38.88;;;36.45;;
11620;SDS011;5866;49.094;11.900;2023-11-21T08:02:14;47.10;;;44.28;;
11620;SDS011;5866;49.094;11.900;2023-11-21T08:04:42;44.22;;;41.50;;
11620;SDS011;5866;49.094;11.900;2023-11-21T08:07:11;42.33;;;39.72;;
11620;SDS011;5866;49.094;11.900;2023-11-21T08:09:39;43.97;;;40.78;;
11620;SDS011;5866;49.094;11.900;2023-11-21T08:12:07;50.08;;;47.10;;
11620;SDS011;5866;49.094;11.900;2023-11-21T08:14:37;98.63;;;93.35;;
11620;SDS011;5866;49.094;11.900;2023-11-21T08:17:06;63.80;;;60.22;;
11620;SDS011;5866;49.094;11.900;2023-11-21T08:19:36;38.83;;;36.33;;
11620;SDS011;5866;49.094;11.900;2023-11-21T08:22:04;45.70;;;42.97;;
11620;SDS011;5866;49.094;11.900;2023-11-21T08:24:34;34.63;;;32.38;;
11620;SDS011;5866;49.094;11.900;2023-11-21T08:27:03;11.10;;;10.07;;
11620;SDS011;5866;49.094;11.900;2023-11-21T08:29:33;7.90;;;7.10;;
11620;SDS011;5866;49.094;11.900;2023-11-21T08:32:02;7.78;;;7.13;;
11620;SDS011;5866;49.094;11.900;2023-11-21T08:34:31;7.25;;;6.70;;
11620;SDS011;5866;49.094;11.900;2023-11-21T08:36:59;9.82;;;9.05;;
11620;SDS011;5866;49.094;11.900;2023-11-21T08:39:27;7.90;;;7.35;;
11620;SDS011;5866;49.094;11.900;2023-11-21T08:41:56;8.23;;;7.53;;
11620;SDS011;5866;49.094;11.900;2023-11-21T08:44:25;6.05;;;5.57;;
11620;SDS011;5866;49.094;11.900;2023-11-21T08:46:53;6.60;;;6.00;;
11620;SDS011;5866;49.094;11.900;2023-11-21T08:49:20;7.82;;;7.05;;
11620;SDS011;5866;49.094;11.900;2023-11-21T08:51:48;6.57;;;5.97;;
11620;SDS011;5866;49.094;11.900;2023-11-21T08:54:16;7.35;;;6.65;;
11620;SDS011;5866;49.094;11.900;2023-11-21T08:56:43;6.10;;;5.40;;
11620;SDS011;5866;49.094;11.900;2023-11-21T08:59:12;6.55;;;6.05;;
11620;SDS011;5866;49.094;11.900;2023-11-21T09:01:42;6.03;;;5.45;;
11620;SDS011;5866;49.094;11.900;2023-11-21T09:04:10;5.68;;;5.25;;
11620;SDS011;5866;49.094;11.900;2023-11-21T09:06:37;9.80;;;9.20;;
11620;SDS011;5866;49.094;11.900;2023-11-21T09:09:05;8.07;;;7.43;;
11620;SDS011;5866;49.094;11.900;2023-11-21T09:11:34;7.72;;;7.13;;
11620;SDS011;5866;49.094;11.900;2023-11-21T09:14:02;7.00;;;6.15;;
11620;SDS011;5866;49.094;11.900;2023-11-21T09:16:30;6.15;;;5.60;;
11620;SDS011;5866;49.094;11.900;2023-11-21T09:18:59;5.38;;;4.88;;
11620;SDS011;5866;49.094;11.900;2023-11-21T09:21:28;4.88;;;4.28;;
11620;SDS011;5866;49.094;11.900;2023-11-21T09:23:55;5.20;;;4.80;;
11620;SDS011;5866;49.094;11.900;2023-11-21T09:26:24;4.72;;;4.25;;
11620;SDS011;5866;49.094;11.900;2023-11-21T09:28:52;4.70;;;4.35;;
11620;SDS011;5866;49.094;11.900;2023-11-21T09:31:21;5.45;;;4.95;;
11620;SDS011;5866;49.094;11.900;2023-11-21T09:33:50;7.30;;;6.70;;
11620;SDS011;5866;49.094;11.900;2023-11-21T09:36:19;8.00;;;7.25;;
11620;SDS011;5866;49.094;11.900;2023-11-21T09:38:48;9.20;;;8.60;;
11620;SDS011;5866;49.094;11.900;2023-11-21T09:41:19;12.88;;;12.10;;
11620;SDS011;5866;49.094;11.900;2023-11-21T09:43:51;22.00;;;20.67;;
11620;SDS011;5866;49.094;11.900;2023-11-21T09:46:25;40.30;;;38.20;;
11620;SDS011;5866;49.094;11.900;2023-11-21T09:48:56;38.80;;;36.70;;
11620;SDS011;5866;49.094;11.900;2023-11-21T09:51:29;22.58;;;21.17;;
11620;SDS011;5866;49.094;11.900;2023-11-21T09:53:59;11.27;;;10.68;;
11620;SDS011;5866;49.094;11.900;2023-11-21T09:56:32;9.15;;;8.55;;
11620;SDS011;5866;49.094;11.900;2023-11-21T09:59:00;8.35;;;7.75;;
11620;SDS011;5866;49.094;11.900;2023-11-21T10:01:32;5.40;;;5.00;;
11620;SDS011;5866;49.094;11.900;2023-11-21T10:04:02;3.75;;;3.55;;
11620;SDS011;5866;49.094;11.900;2023-11-21T10:06:31;4.93;;;4.45;;
11620;SDS011;5866;49.094;11.900;2023-11-21T10:08:59;3.53;;;3.22;;
11620;SDS011;5866;49.094;11.900;2023-11-21T10:11:27;4.43;;;4.03;;
11620;SDS011;5866;49.094;11.900;2023-11-21T10:13:56;5.65;;;5.25;;
11620;SDS011;5866;49.094;11.900;2023-11-21T10:16:28;9.25;;;8.55;;
11620;SDS011;5866;49.094;11.900;2023-11-21T10:18:56;12.48;;;11.35;;
11620;SDS011;5866;49.094;11.900;2023-11-21T10:21:38;11.07;;;10.43;;
11620;SDS011;5866;49.094;11.900;2023-11-21T10:24:06;16.55;;;15.55;;
11620;SDS011;5866;49.094;11.900;2023-11-21T10:26:34;23.05;;;21.73;;
11620;SDS011;5866;49.094;11.900;2023-11-21T10:29:18;28.42;;;26.73;;
11620;SDS011;5866;49.094;11.900;2023-11-21T10:31:48;26.73;;;25.13;;
11620;SDS011;5866;49.094;11.900;2023-11-21T10:34:17;27.42;;;25.88;;
11620;SDS011;5866;49.094;11.900;2023-11-21T10:36:47;25.77;;;24.35;;
11620;SDS011;5866;49.094;11.900;2023-11-21T10:39:16;27.83;;;26.30;;
11620;SDS011;5866;49.094;11.900;2023-11-21T10:41:45;30.13;;;28.42;;
11620;SDS011;5866;49.094;11.900;2023-11-21T10:44:14;29.58;;;27.88;;
11620;SDS011;5866;49.094;11.900;2023-11-21T10:46:47;27.90;;;26.27;;
11620;SDS011;5866;49.094;11.900;2023-11-21T10:49:17;33.97;;;32.00;;
11620;SDS011;5866;49.094;11.900;2023-11-21T10:51:45;31.80;;;29.90;;
11620;SDS011;5866;49.094;11.900;2023-11-21T10:54:18;15.95;;;15.02;;
11620;SDS011;5866;49.094;11.900;2023-11-21T10:56:47;10.30;;;9.60;;
11620;SDS011;5866;49.094;11.900;2023-11-21T10:59:17;10.85;;;10.15;;
11620;SDS011;5866;49.094;11.900;2023-11-21T11:01:47;5.72;;;5.32;;
11620;SDS011;5866;49.094;11.900;2023-11-21T11:04:17;4.50;;;4.20;;
11620;SDS011;5866;49.094;11.900;2023-11-21T11:06:46;8.85;;;8.35;;
11620;SDS011;5866;49.094;11.900;2023-11-21T11:09:19;8.35;;;7.80;;
11620;SDS011;5866;49.094;11.900;2023-11-21T11:11:47;5.70;;;5.28;;
11620;SDS011;5866;49.094;11.900;2023-11-21T11:14:15;4.05;;;3.83;;
11620;SDS011;5866;49.094;11.900;2023-11-21T11:16:45;4.43;;;4.13;;
11620;SDS011;5866;49.094;11.900;2023-11-21T11:19:13;3.80;;;3.50;;
11620;SDS011;5866;49.094;11.900;2023-11-21T11:21:46;4.20;;;3.90;;
11620;SDS011;5866;49.094;11.900;2023-11-21T11:24:32;3.70;;;3.40;;
11620;SDS011;5866;49.094;11.900;2023-11-21T11:27:11;4.80;;;4.40;;
11620;SDS011;5866;49.094;11.900;2023-11-21T11:29:49;5.18;;;4.68;;
11620;SDS011;5866;49.094;11.900;2023-11-21T11:32:32;4.53;;;4.22;;
11620;SDS011;5866;49.094;11.900;2023-11-21T11:35:10;5.55;;;5.13;;
11620;SDS011;5866;49.094;11.900;2023-11-21T11:37:44;5.93;;;5.43;;
11620;SDS011;5866;49.094;11.900;2023-11-21T11:40:13;5.70;;;5.30;;
11620;SDS011;5866;49.094;11.900;2023-11-21T11:42:54;7.35;;;6.70;;
11620;SDS011;5866;49.094;11.900;2023-11-21T11:45:24;7.03;;;6.63;;
11620;SDS011;5866;49.094;11.900;2023-11-21T11:48:00;7.60;;;6.63;;
11620;SDS011;5866;49.094;11.900;2023-11-21T11:50:28;6.05;;;5.65;;
11620;SDS011;5866;49.094;11.900;2023-11-21T11:52:57;5.97;;;5.57;;
11620;SDS011;5866;49.094;11.900;2023-11-21T11:55:41;7.22;;;6.72;;
11620;SDS011;5866;49.094;11.900;2023-11-21T11:58:08;6.65;;;6.25;;
11620;SDS011;5866;49.094;11.900;2023-11-21T12:00:36;8.77;;;8.20;;
11620;SDS011;5866;49.094;11.900;2023-11-21T12:03:06;16.02;;;15.13;;
11620;SDS011;5866;49.094;11.900;2023-11-21T12:05:36;23.98;;;22.52;;
11620;SDS011;5866;49.094;11.900;2023-11-21T12:08:06;28.92;;;27.23;;
11620;SDS011;5866;49.094;11.900;2023-11-21T12:10:35;40.88;;;38.65;;
11620;SDS011;5866;49.094;11.900;2023-11-21T12:13:06;36.70;;;34.67;;
11620;SDS011;5866;49.094;11.900;2023-11-21T12:15:34;36.63;;;34.60;;
11620;SDS011;5866;49.094;11.900;2023-11-21T12:18:04;35.15;;;33.28;;
11620;SDS011;5866;49.094;11.900;2023-11-21T12:20:32;35.63;;;33.58;;
11620;SDS011;5866;49.094;11.900;2023-11-21T12:23:05;38.75;;;36.55;;
11620;SDS011;5866;49.094;11.900;2023-11-21T12:25:33;26.65;;;25.17;;
11620;SDS011;5866;49.094;11.900;2023-11-21T12:28:03;26.85;;;25.35;;
11620;SDS011;5866;49.094;11.900;2023-11-21T12:30:34;26.58;;;25.08;;
11620;SDS011;5866;49.094;11.900;2023-11-21T12:33:02;26.85;;;25.42;;
11620;SDS011;5866;49.094;11.900;2023-11-21T12:35:33;25.80;;;24.40;;
11620;SDS011;5866;49.094;11.900;2023-11-21T12:38:03;23.17;;;21.77;;
11620;SDS011;5866;49.094;11.900;2023-11-21T12:40:31;29.58;;;28.02;;
11620;SDS011;5866;49.094;11.900;2023-11-21T12:43:00;24.55;;;23.17;;
11620;SDS011;5866;49.094;11.900;2023-11-21T12:45:30;19.95;;;18.85;;
11620;SDS011;5866;49.094;11.900;2023-11-21T12:48:00;21.65;;;20.15;;
11620;SDS011;5866;49.094;11.900;2023-11-21T12:50:33;20.65;;;19.35;;
11620;SDS011;5866;49.094;11.900;2023-11-21T12:53:03;23.23;;;21.73;;
11620;SDS011;5866;49.094;11.900;2023-11-21T12:55:33;26.63;;;25.08;;
11620;SDS011;5866;49.094;11.900;2023-11-21T12:58:05;29.17;;;27.42;;
11620;SDS011;5866;49.094;11.900;2023-11-21T13:00:36;27.15;;;25.55;;
11620;SDS011;5866;49.094;11.900;2023-11-21T13:03:06;29.27;;;27.45;;
11620;SDS011;5866;49.094;11.900;2023-11-21T13:05:37;31.10;;;29.35;;
11620;SDS011;5866;49.094;11.900;2023-11-21T13:08:06;34.97;;;33.08;;
11620;SDS011;5866;49.094;11.900;2023-11-21T13:10:36;39.60;;;37.40;;
11620;SDS011;5866;49.094;11.900;2023-11-21T13:13:05;43.90;;;41.53;;
11620;SDS011;5866;49.094;11.900;2023-11-21T13:15:38;45.38;;;42.80;;
11620;SDS011;5866;49.094;11.900;2023-11-21T13:18:08;49.88;;;47.20;;
11620;SDS011;5866;49.094;11.900;2023-11-21T13:20:37;48.65;;;45.92;;
11620;SDS011;5866;49.094;11.900;2023-11-21T13:23:07;65.90;;;60.80;;
11620;SDS011;5866;49.094;11.900;2023-11-21T13:25:38;58.45;;;54.95;;
11620;SDS011;5866;49.094;11.900;2023-11-21T13:28:08;54.22;;;51.10;;
11620;SDS011;5866;49.094;11.900;2023-11-21T13:30:38;50.67;;;47.88;;
11620;SDS011;5866;49.094;11.900;2023-11-21T13:33:08;46.97;;;44.33;;
11620;SDS011;5866;49.094;11.900;2023-11-21T13:35:45;32.35;;;30.52;;
11620;SDS011;5866;49.094;11.900;2023-11-21T13:38:16;33.05;;;31.17;;
11620;SDS011;5866;49.094;11.900;2023-11-21T13:40:49;34.55;;;32.67;;
11620;SDS011;5866;49.094;11.900;2023-11-21T13:43:21;35.90;;;33.90;;
11620;SDS011;5866;49.094;11.900;2023-11-21T13:45:52;36.33;;;34.35;;
11620;SDS011;5866;49.094;11.900;2023-11-21T13:48:27;36.15;;;34.05;;
11620;SDS011;5866;49.094;11.900;2023-11-21T13:51:00;36.58;;;34.67;;
11620;SDS011;5866;49.094;11.900;2023-11-21T13:53:36;36.58;;;34.58;;
11620;SDS011;5866;49.094;11.900;2023-11-21T13:56:05;40.28;;;38.17;;
11620;SDS011;5866;49.094;11.900;2023-11-21T13:58:33;40.50;;;38.20;;
11620;SDS011;5866;49.094;11.900;2023-11-21T14:01:10;37.17;;;35.17;;
11620;SDS011;5866;49.094;11.900;2023-11-21T14:03:56;35.42;;;33.55;;
11620;SDS011;5866;49.094;11.900;2023-11-21T14:06:29;38.33;;;36.13;;
11620;SDS011;5866;49.094;11.900;2023-11-21T14:09:00;39.63;;;37.53;;
11620;SDS011;5866;49.094;11.900;2023-11-21T14:11:31;38.92;;;36.80;;
11620;SDS011;5866;49.094;11.900;2023-11-21T14:14:08;40.05;;;37.88;;
11620;SDS011;5866;49.094;11.900;2023-11-21T14:16:36;34.65;;;32.72;;
11620;SDS011;5866;49.094;11.900;2023-11-21T14:19:05;35.72;;;33.83;;
11620;SDS011;5866;49.094;11.900;2023-11-21T14:21:42;30.90;;;29.30;;
11620;SDS011;5866;49.094;11.900;2023-11-21T14:24:10;25.83;;;24.35;;
11620;SDS011;5866;49.094;11.900;2023-11-21T14:26:40;31.13;;;29.42;;
11620;SDS011;5866;49.094;11.900;2023-11-21T14:29:08;17.27;;;16.08;;
11620;SDS011;5866;49.094;11.900;2023-11-21T14:31:38;24.92;;;23.60;;
11620;SDS011;5866;49.094;11.900;2023-11-21T14:34:08;30.30;;;28.70;;
11620;SDS011;5866;49.094;11.900;2023-11-21T14:36:38;27.17;;;25.67;;